Navy Ships, Pennsylvania
Current Conditions -  °F | °C
As of 4:56 AM on Monday 26 Jan 2015 (Local Time) from KCXY Reporting Station
Overcast Overcast  
Wind Chill: 12°   Ceiling: 1400
Heat Index: 25°   Visibility: 9mi
Dew Point: 21°   Wind: 17mph
Humidity: 85%   Direction: 70°ENE
Pressure: 29.88"   Gusts: NA
Location:  40.2485°N, 77.0142°W
Report Text: KCXY 260956Z AUTO 07015KT 9SM OVC014 M04/M06 A2988 RMK AO2 UPB54E56SNE54 SLP123 P0000 T10391061
Loading
Personal Weather Stations






























Interactive Weather Map New forecast layout! Learn more

10-Day Weather Forecast

Advertisements
Track Severe Weather on mobile